createdAt,value
2017-09-03T00:01:48.900Z,101.33
2017-09-03T00:04:17.662Z,100.43
2017-09-03T00:06:46.191Z,103.90
2017-09-03T00:09:14.898Z,103.73
2017-09-03T00:11:43.657Z,104.67
2017-09-03T00:14:12.123Z,108.90
2017-09-03T00:16:40.662Z,112.67
2017-09-03T00:19:09.442Z,114.53
2017-09-03T00:21:37.459Z,110.23
2017-09-03T00:24:06.078Z,107.00
2017-09-03T00:26:34.961Z,110.37
2017-09-03T00:29:03.745Z,113.30
2017-09-03T00:31:32.265Z,115.97
2017-09-03T00:34:01.026Z,113.07
2017-09-03T00:36:29.674Z,110.00
2017-09-03T00:38:57.698Z,112.10
2017-09-03T00:41:26.501Z,113.67
2017-09-03T00:43:54.944Z,110.37
2017-09-03T00:46:23.544Z,111.93
2017-09-03T00:48:52.357Z,113.90
2017-09-03T00:51:21.008Z,114.30
2017-09-03T00:53:49.434Z,112.50
2017-09-03T00:56:18.087Z,107.47
2017-09-03T00:58:46.835Z,109.17
2017-09-03T01:01:14.850Z,106.00
2017-09-03T01:03:43.643Z,111.13
2017-09-03T01:06:12.525Z,107.43
2017-09-03T01:08:41.278Z,111.67
2017-09-03T01:11:09.534Z,107.93
2017-09-03T01:13:38.142Z,107.40
2017-09-03T01:16:06.264Z,104.33
2017-09-03T01:18:35.146Z,107.97
2017-09-03T01:21:03.831Z,105.87
2017-09-03T01:23:32.611Z,103.00
2017-09-03T01:26:01.262Z,103.80
2017-09-03T01:28:30.417Z,104.57
2017-09-03T01:30:58.993Z,107.10
2017-09-03T01:33:27.809Z,108.83
2017-09-03T01:35:56.530Z,106.90
2017-09-03T01:38:25.247Z,108.77
2017-09-03T01:40:53.775Z,108.90
2017-09-03T01:43:22.354Z,110.87
2017-09-03T01:45:50.378Z,105.77
2017-09-03T01:48:19.086Z,107.90
2017-09-03T01:50:47.836Z,110.20
2017-09-03T01:53:16.231Z,110.17
2017-09-03T01:55:44.941Z,107.43
2017-09-03T01:58:13.553Z,108.33
2017-09-03T02:00:42.278Z,108.50
2017-09-03T02:03:10.759Z,109.50
2017-09-03T02:05:39.183Z,109.07
2017-09-03T02:08:07.931Z,112.50
2017-09-03T02:10:36.421Z,106.57
2017-09-03T02:13:05.046Z,114.30
2017-09-03T02:15:33.650Z,104.70
2017-09-03T02:18:02.478Z,108.43
2017-09-03T02:20:30.926Z,107.03
2017-09-03T02:22:59.582Z,108.23
2017-09-03T02:25:28.477Z,102.17
2017-09-03T02:27:57.222Z,96.67
2017-09-03T02:30:25.619Z,100.90
2017-09-03T02:32:54.434Z,104.40
2017-09-03T02:35:23.015Z,95.80
2017-09-03T02:37:51.063Z,98.33
2017-09-03T02:40:19.814Z,95.93
2017-09-03T02:42:48.461Z,96.87
2017-09-03T02:45:16.828Z,100.83
2017-09-03T02:47:44.931Z,102.17
2017-09-03T02:50:13.387Z,101.87
2017-09-03T02:52:41.401Z,101.13
2017-09-03T02:55:09.918Z,104.17
2017-09-03T02:57:38.438Z,100.23
2017-09-03T03:00:07.021Z,102.80
2017-09-03T03:02:35.570Z,98.50
2017-09-03T03:05:04.090Z,101.57
2017-09-03T03:07:32.773Z,101.27
2017-09-03T03:10:01.379Z,94.97
2017-09-03T03:12:29.947Z,87.30
2017-09-03T03:14:58.664Z,83.77
2017-09-03T03:17:27.591Z,80.30
2017-09-03T03:19:55.630Z,80.07
2017-09-03T03:22:24.291Z,77.63
2017-09-03T03:24:53.286Z,71.87
2017-09-03T03:27:22.029Z,71.60
2017-09-03T03:29:50.074Z,72.80
2017-09-03T03:32:18.178Z,67.10
2017-09-03T03:34:46.221Z,71.00
2017-09-03T03:37:14.971Z,70.10
2017-09-03T03:39:43.917Z,68.70
2017-09-03T03:42:12.382Z,64.27
2017-09-03T03:44:40.962Z,63.73
2017-09-03T03:47:09.789Z,62.10
2017-09-03T03:49:38.186Z,66.33
2017-09-03T03:52:06.214Z,58.87
2017-09-03T03:54:34.826Z,60.77
2017-09-03T03:57:03.354Z,57.53
2017-09-03T03:59:32.684Z,56.40
2017-09-03T04:02:00.810Z,59.60
2017-09-03T04:04:29.286Z,56.93
2017-09-03T04:06:57.326Z,61.47
2017-09-03T04:09:25.821Z,60.57
2017-09-03T04:11:54.347Z,62.47
2017-09-03T04:14:22.938Z,56.97
2017-09-03T04:16:51.822Z,55.57
2017-09-03T04:19:20.351Z,55.80
2017-09-03T04:21:48.443Z,54.63
2017-09-03T04:24:17.265Z,52.30
2017-09-03T04:26:46.054Z,51.50
2017-09-03T04:29:14.736Z,51.57
2017-09-03T04:31:43.470Z,44.20
2017-09-03T04:34:12.054Z,44.83
2017-09-03T04:36:40.090Z,43.10
2017-09-03T04:39:08.778Z,44.80
2017-09-03T04:41:37.405Z,43.40
2017-09-03T04:44:06.145Z,43.90
2017-09-03T04:46:34.742Z,43.17
2017-09-03T04:49:02.782Z,43.27
2017-09-03T04:51:31.282Z,43.10
2017-09-03T04:53:59.987Z,41.88
2017-09-03T04:56:28.593Z,41.50
2017-09-03T04:58:57.317Z,39.70
2017-09-03T05:01:25.458Z,41.03
2017-09-03T05:03:54.010Z,38.00
2017-09-03T05:06:22.795Z,40.23
2017-09-03T05:08:51.600Z,40.60
2017-09-03T05:11:20.210Z,39.80
2017-09-03T05:13:48.926Z,38.77
2017-09-03T05:16:17.418Z,36.63
2017-09-03T05:18:45.857Z,33.10
2017-09-03T05:21:14.578Z,32.08
2017-09-03T05:23:44.050Z,34.25
2017-09-03T05:26:12.158Z,31.65
2017-09-03T05:28:40.682Z,30.15
2017-09-03T05:31:09.503Z,31.92
2017-09-03T05:33:38.230Z,32.28
2017-09-03T05:36:06.687Z,31.87
2017-09-03T05:38:35.430Z,31.60
2017-09-03T05:41:03.942Z,32.05
2017-09-03T05:43:32.693Z,30.95
2017-09-03T05:46:01.257Z,28.03
2017-09-03T05:48:29.771Z,32.07
2017-09-03T05:50:58.382Z,31.33
2017-09-03T05:53:26.898Z,25.80
2017-09-03T05:55:55.422Z,25.13
2017-09-03T05:58:24.006Z,24.50
2017-09-03T06:00:52.110Z,24.63
2017-09-03T06:03:20.593Z,24.60
2017-09-03T06:05:49.342Z,25.08
2017-09-03T06:08:17.901Z,26.70
2017-09-03T06:10:45.923Z,26.80
2017-09-03T06:13:14.366Z,24.83
2017-09-03T06:15:43.079Z,23.98
2017-09-03T06:18:11.762Z,23.17
2017-09-03T06:20:40.515Z,23.50
2017-09-03T06:23:09.185Z,22.42
2017-09-03T06:25:37.222Z,23.92
2017-09-03T06:28:05.674Z,25.80
2017-09-03T06:30:34.522Z,24.52
2017-09-03T06:33:03.098Z,24.92
2017-09-03T06:35:31.818Z,26.23
2017-09-03T06:37:59.940Z,22.37
2017-09-03T06:40:27.974Z,23.47
2017-09-03T06:42:56.024Z,23.77
2017-09-03T06:45:24.874Z,22.37
2017-09-03T06:47:53.624Z,22.13
2017-09-03T06:50:22.127Z,21.67
2017-09-03T06:52:50.862Z,21.05
2017-09-03T06:55:19.439Z,22.13
2017-09-03T06:57:47.450Z,21.40
2017-09-03T07:00:16.177Z,22.98
2017-09-03T07:02:44.859Z,22.90
2017-09-03T07:05:13.638Z,23.65
2017-09-03T07:07:42.202Z,31.42
2017-09-03T07:10:10.242Z,39.35
2017-09-03T07:12:38.662Z,36.80
2017-09-03T07:15:07.302Z,40.53
2017-09-03T07:17:35.964Z,39.47
2017-09-03T07:20:04.978Z,43.17
2017-09-03T07:22:33.502Z,42.92
2017-09-03T07:25:01.926Z,46.58
2017-09-03T07:27:30.730Z,49.78
2017-09-03T07:29:58.834Z,51.65
2017-09-03T07:32:26.855Z,52.83
2017-09-03T07:34:55.370Z,54.47
2017-09-03T07:37:24.034Z,54.63
2017-09-03T07:39:52.716Z,55.50
2017-09-03T07:42:21.561Z,53.17
2017-09-03T07:44:50.485Z,52.20
2017-09-03T07:47:19.009Z,50.50
2017-09-03T07:49:47.572Z,48.27
2017-09-03T07:52:15.674Z,45.43
2017-09-03T07:54:44.222Z,45.53
2017-09-03T07:57:12.835Z,43.97
2017-09-03T07:59:41.364Z,46.13
2017-09-03T08:02:09.985Z,42.97
2017-09-03T08:04:38.482Z,46.90
2017-09-03T08:07:07.098Z,42.20
2017-09-03T08:09:35.626Z,41.80
2017-09-03T08:12:04.243Z,40.80
2017-09-03T08:14:33.202Z,38.63
2017-09-03T08:17:01.662Z,38.40
2017-09-03T08:19:30.177Z,34.93
2017-09-03T08:21:59.161Z,35.90
2017-09-03T08:24:27.850Z,33.10
2017-09-03T08:26:56.631Z,33.77
2017-09-03T08:29:24.726Z,34.20
2017-09-03T08:31:53.398Z,36.30
2017-09-03T08:34:22.185Z,35.80
2017-09-03T08:36:50.842Z,37.63
2017-09-03T08:39:19.258Z,34.03
2017-09-03T08:41:47.946Z,37.60
2017-09-03T08:44:16.798Z,37.80
2017-09-03T08:46:44.826Z,37.23
2017-09-03T08:49:13.497Z,35.27
2017-09-03T08:51:42.387Z,37.67
2017-09-03T08:54:11.166Z,37.90
2017-09-03T08:56:39.643Z,33.70
2017-09-03T08:59:08.454Z,37.40
2017-09-03T09:01:37.134Z,38.27
2017-09-03T09:04:05.814Z,36.80
2017-09-03T09:06:34.480Z,40.00
2017-09-03T09:09:03.030Z,37.50
2017-09-03T09:11:31.642Z,35.73
2017-09-03T09:14:00.207Z,36.20
2017-09-03T09:16:28.754Z,36.50
2017-09-03T09:18:57.467Z,37.20
2017-09-03T09:21:26.330Z,39.07
2017-09-03T09:23:55.836Z,41.87
2017-09-03T09:26:24.658Z,40.40
2017-09-03T09:28:53.547Z,48.20
2017-09-03T09:31:22.406Z,39.93
2017-09-03T09:33:51.191Z,40.97
2017-09-03T09:36:19.382Z,39.30
2017-09-03T09:38:47.410Z,42.20
2017-09-03T09:41:15.931Z,42.13
2017-09-03T09:43:44.746Z,41.63
2017-09-03T09:46:13.534Z,42.47
2017-09-03T09:48:42.126Z,45.70
2017-09-03T09:51:11.046Z,44.30
2017-09-03T09:53:39.703Z,45.40
2017-09-03T09:56:09.163Z,44.97
2017-09-03T09:58:37.952Z,43.30
2017-09-03T10:01:05.971Z,43.13
2017-09-03T10:03:34.411Z,45.03
2017-09-03T10:06:03.114Z,42.63
2017-09-03T10:08:31.726Z,41.43
2017-09-03T10:11:00.447Z,44.67
2017-09-03T10:13:28.930Z,41.37
2017-09-03T10:15:57.378Z,43.40
2017-09-03T10:18:26.098Z,45.40
2017-09-03T10:20:54.582Z,43.47
2017-09-03T10:23:23.107Z,45.10
2017-09-03T10:25:52.406Z,37.40
2017-09-03T10:28:21.217Z,43.33
2017-09-03T10:30:49.879Z,40.13
2017-09-03T10:33:18.342Z,39.10
2017-09-03T10:35:47.078Z,37.73
2017-09-03T10:38:15.662Z,31.80
2017-09-03T10:40:44.414Z,35.83
2017-09-03T10:43:13.010Z,32.47
2017-09-03T10:45:41.622Z,34.77
2017-09-03T10:48:10.363Z,29.70
2017-09-03T10:50:38.933Z,31.37
2017-09-03T10:53:07.458Z,31.30
2017-09-03T10:55:36.135Z,33.13
2017-09-03T10:58:04.246Z,33.13
2017-09-03T11:00:32.821Z,32.90
2017-09-03T11:03:01.472Z,30.50
2017-09-03T11:05:30.031Z,34.27
2017-09-03T11:07:58.576Z,34.60
2017-09-03T11:10:27.338Z,31.50
2017-09-03T11:12:56.294Z,30.97
2017-09-03T11:15:24.694Z,30.90
2017-09-03T11:17:52.718Z,27.90
2017-09-03T11:20:21.314Z,28.70
2017-09-03T11:22:49.341Z,28.30
2017-09-03T11:25:18.122Z,27.37
2017-09-03T11:27:46.938Z,27.73
2017-09-03T11:30:15.401Z,28.87
2017-09-03T11:32:44.015Z,28.33
2017-09-03T11:35:12.942Z,25.67
2017-09-03T11:37:41.244Z,26.90
2017-09-03T11:40:09.851Z,29.10
2017-09-03T11:42:38.638Z,27.37
2017-09-03T11:45:07.414Z,34.60
2017-09-03T11:47:35.890Z,33.90
2017-09-03T11:50:04.123Z,34.80
2017-09-03T11:52:32.862Z,38.00
2017-09-03T11:55:01.287Z,38.90
2017-09-03T11:57:30.150Z,29.10
2017-09-03T11:59:58.758Z,32.53
2017-09-03T12:02:27.481Z,37.37
2017-09-03T12:04:55.973Z,44.17
2017-09-03T12:07:24.491Z,45.47
2017-09-03T12:09:53.234Z,47.43
2017-09-03T12:12:21.346Z,46.37
2017-09-03T12:14:49.957Z,50.87
2017-09-03T12:17:18.618Z,54.33
2017-09-03T12:19:47.470Z,55.20
2017-09-03T12:22:15.926Z,55.90
2017-09-03T12:24:43.943Z,55.63
2017-09-03T12:27:12.506Z,51.13
2017-09-03T12:29:41.073Z,54.00
2017-09-03T12:32:09.726Z,53.47
2017-09-03T12:34:38.574Z,55.40
2017-09-03T12:37:07.023Z,57.43
2017-09-03T12:39:35.607Z,58.07
2017-09-03T12:42:04.362Z,58.70
2017-09-03T12:44:33.144Z,58.70
2017-09-03T12:47:01.718Z,59.03
2017-09-03T12:49:30.426Z,60.43
2017-09-03T12:51:59.039Z,60.50
2017-09-03T12:54:27.763Z,57.47
2017-09-03T12:56:56.242Z,58.77
2017-09-03T12:59:24.772Z,59.53
2017-09-03T13:01:53.415Z,61.00
2017-09-03T13:04:22.000Z,62.27
2017-09-03T13:06:50.529Z,62.60
2017-09-03T13:09:19.206Z,64.50
2017-09-03T13:11:48.162Z,63.73
2017-09-03T13:14:16.562Z,64.93
2017-09-03T13:16:45.971Z,64.63
2017-09-03T13:19:14.638Z,59.17
2017-09-03T13:21:42.654Z,60.37
2017-09-03T13:24:11.106Z,62.00
2017-09-03T13:26:40.026Z,64.40
2017-09-03T13:29:08.629Z,66.40
2017-09-03T13:31:37.726Z,69.97
2017-09-03T13:34:06.592Z,68.40
2017-09-03T13:36:35.269Z,68.93
2017-09-03T13:39:04.102Z,70.07
2017-09-03T13:41:32.792Z,69.30
2017-09-03T13:44:01.343Z,68.87
2017-09-03T13:46:30.031Z,68.50
2017-09-03T13:48:58.807Z,69.17
2017-09-03T13:51:27.246Z,69.27
2017-09-03T13:53:55.786Z,69.00
2017-09-03T13:56:24.602Z,70.33
2017-09-03T13:58:53.327Z,66.90
2017-09-03T14:01:22.038Z,69.37
2017-09-03T14:03:50.566Z,70.23
2017-09-03T14:06:19.149Z,63.87
2017-09-03T14:08:47.867Z,71.20
2017-09-03T14:11:16.787Z,69.60
2017-09-03T14:13:45.479Z,67.00
2017-09-03T14:16:13.518Z,65.87
2017-09-03T14:18:42.346Z,64.70
2017-09-03T14:21:11.132Z,65.90
2017-09-03T14:23:39.142Z,69.80
2017-09-03T14:26:07.999Z,69.20
2017-09-03T14:28:37.108Z,69.07
2017-09-03T14:31:05.878Z,70.90
2017-09-03T14:33:34.323Z,72.37
2017-09-03T14:36:02.370Z,70.57
2017-09-03T14:38:30.831Z,70.43
2017-09-03T14:40:59.614Z,70.93
2017-09-03T14:43:28.226Z,68.93
2017-09-03T14:45:56.977Z,66.33
2017-09-03T14:48:25.583Z,65.37
2017-09-03T14:50:54.159Z,62.50
2017-09-03T14:53:22.770Z,66.43
2017-09-03T14:55:51.291Z,63.90
2017-09-03T14:58:19.910Z,63.60
2017-09-03T15:00:48.523Z,68.93
2017-09-03T15:03:17.449Z,68.80
2017-09-03T15:05:45.847Z,66.87
2017-09-03T15:08:14.390Z,67.20
2017-09-03T15:10:43.170Z,67.23
2017-09-03T15:13:11.622Z,65.07
2017-09-03T15:15:40.113Z,60.43
2017-09-03T15:18:09.106Z,63.50
2017-09-03T15:20:37.790Z,59.60
2017-09-03T15:23:06.647Z,62.70
2017-09-03T15:25:35.644Z,61.37
2017-09-03T15:28:04.459Z,60.77
2017-09-03T15:30:32.978Z,61.50
2017-09-03T15:33:01.674Z,61.60
2017-09-03T15:35:30.633Z,63.27
2017-09-03T15:37:59.313Z,59.50
2017-09-03T15:40:28.206Z,57.80
2017-09-03T15:42:56.885Z,55.60
2017-09-03T15:45:25.410Z,54.30
2017-09-03T15:47:54.065Z,56.97
2017-09-03T15:50:22.754Z,56.60
2017-09-03T15:52:50.891Z,53.73
2017-09-03T15:55:19.510Z,58.67
2017-09-03T15:57:48.198Z,54.50
2017-09-03T16:00:16.877Z,52.93
2017-09-03T16:02:45.453Z,54.63
2017-09-03T16:05:14.058Z,56.13
2017-09-03T16:07:42.064Z,52.47
2017-09-03T16:10:10.722Z,51.93
2017-09-03T16:12:39.398Z,51.00
2017-09-03T16:15:08.153Z,50.87
2017-09-03T16:17:36.633Z,49.63
2017-09-03T16:20:05.160Z,54.20
2017-09-03T16:22:33.778Z,53.13
2017-09-03T16:25:02.698Z,48.87
2017-09-03T16:27:31.103Z,50.17
2017-09-03T16:29:59.121Z,53.37
2017-09-03T16:32:27.635Z,51.97
2017-09-03T16:34:56.159Z,50.67
2017-09-03T16:37:25.047Z,52.30
2017-09-03T16:39:53.762Z,50.33
2017-09-03T16:42:22.481Z,51.63
2017-09-03T16:44:50.882Z,54.13
2017-09-03T16:47:19.594Z,55.00
2017-09-03T16:49:48.406Z,52.80
2017-09-03T16:52:28.833Z,50.53
2017-09-03T16:54:57.840Z,52.43
2017-09-03T16:57:26.634Z,52.97
2017-09-03T16:59:55.630Z,50.60
2017-09-03T17:02:24.311Z,49.33
2017-09-03T17:04:52.499Z,48.53
2017-09-03T17:07:21.415Z,49.50
2017-09-03T17:09:50.198Z,50.40
2017-09-03T17:12:19.062Z,53.23
2017-09-03T17:14:48.050Z,49.67
2017-09-03T17:17:16.674Z,49.70
2017-09-03T17:19:45.357Z,50.70
2017-09-03T17:22:15.002Z,51.90
2017-09-03T17:24:43.589Z,50.37
2017-09-03T17:27:13.362Z,50.47
2017-09-03T17:29:42.354Z,51.17
2017-09-03T17:32:11.222Z,53.57
2017-09-03T17:34:47.472Z,51.83
2017-09-03T17:37:26.492Z,52.30
2017-09-03T17:39:56.446Z,52.73
2017-09-03T17:42:25.106Z,55.70
2017-09-03T17:44:53.905Z,56.03
2017-09-03T17:47:22.798Z,55.90
2017-09-03T17:49:51.591Z,55.60
2017-09-03T17:52:20.519Z,56.57
2017-09-03T17:54:49.574Z,53.80
2017-09-03T17:57:18.430Z,52.87
2017-09-03T17:59:46.895Z,54.43
2017-09-03T18:02:15.170Z,55.43
2017-09-03T18:04:43.978Z,56.83
2017-09-03T18:07:12.638Z,56.67
2017-09-03T18:09:41.453Z,54.67
2017-09-03T18:12:10.191Z,51.53
2017-09-03T18:14:38.975Z,52.00
2017-09-03T18:17:07.895Z,52.63
2017-09-03T18:19:36.754Z,50.37
2017-09-03T18:22:05.713Z,49.53
2017-09-03T18:24:34.354Z,53.00
2017-09-03T18:27:03.132Z,53.73
2017-09-03T18:29:41.415Z,54.07
2017-09-03T18:32:10.238Z,55.43
2017-09-03T18:34:39.135Z,54.60
2017-09-03T18:37:13.638Z,54.43
2017-09-03T18:39:47.281Z,54.23
2017-09-03T18:42:30.858Z,54.73
2017-09-03T18:44:59.602Z,52.70
2017-09-03T18:47:28.467Z,54.43
2017-09-03T18:50:00.946Z,51.83
2017-09-03T18:52:31.295Z,56.87
2017-09-03T18:55:00.158Z,55.10
2017-09-03T18:57:46.262Z,53.63
2017-09-03T19:00:14.454Z,52.97
2017-09-03T19:02:43.516Z,49.70
2017-09-03T19:05:20.782Z,53.67
2017-09-03T19:07:49.383Z,51.77
2017-09-03T19:10:18.194Z,52.37
2017-09-03T19:12:46.982Z,50.27
2017-09-03T19:15:15.766Z,53.40
2017-09-03T19:17:43.942Z,56.90
2017-09-03T19:20:12.870Z,56.37
2017-09-03T19:22:41.626Z,57.13
2017-09-03T19:25:10.447Z,57.20
2017-09-03T19:27:39.456Z,54.10
2017-09-03T19:30:07.638Z,55.60
2017-09-03T19:32:36.309Z,53.37
2017-09-03T19:35:05.066Z,53.30
2017-09-03T19:37:35.759Z,52.13
2017-09-03T19:40:04.695Z,55.60
2017-09-03T19:42:33.611Z,51.80
2017-09-03T19:45:01.623Z,53.57
2017-09-03T19:47:30.377Z,54.07
2017-09-03T19:49:58.960Z,53.30
2017-09-03T19:52:27.678Z,52.67
2017-09-03T19:54:56.501Z,54.83
2017-09-03T19:57:24.966Z,55.00
2017-09-03T19:59:53.578Z,55.20
2017-09-03T20:02:22.390Z,54.03
2017-09-03T20:04:51.114Z,58.20
2017-09-03T20:07:19.134Z,57.90
2017-09-03T20:09:47.941Z,57.03
2017-09-03T20:12:16.370Z,56.43
2017-09-03T20:14:44.981Z,54.70
2017-09-03T20:17:13.081Z,57.60
2017-09-03T20:19:41.566Z,56.40
2017-09-03T20:22:10.222Z,56.30
2017-09-03T20:24:39.077Z,57.17
2017-09-03T20:27:07.473Z,57.63
2017-09-03T20:29:36.085Z,56.00
2017-09-03T20:32:04.803Z,55.57
2017-09-03T20:34:33.518Z,52.23
2017-09-03T20:37:02.174Z,54.43
2017-09-03T20:39:30.290Z,55.50
2017-09-03T20:41:58.993Z,51.43
2017-09-03T20:44:28.302Z,52.93
2017-09-03T20:46:56.638Z,53.67
2017-09-03T20:49:25.171Z,53.03
2017-09-03T20:51:53.854Z,51.93
2017-09-03T20:54:22.811Z,51.40
2017-09-03T20:56:51.210Z,55.17
2017-09-03T20:59:19.842Z,55.53
2017-09-03T21:01:48.634Z,56.03
2017-09-03T21:04:17.458Z,53.40
2017-09-03T21:06:46.006Z,56.73
2017-09-03T21:09:14.608Z,57.80
2017-09-03T21:11:43.251Z,54.20
2017-09-03T21:14:11.927Z,55.90
2017-09-03T21:16:40.586Z,51.97
2017-09-03T21:19:09.113Z,53.73
2017-09-03T21:21:37.694Z,52.07
2017-09-03T21:24:06.646Z,52.17
2017-09-03T21:26:35.059Z,53.63
2017-09-03T21:29:03.581Z,52.10
2017-09-03T21:31:32.442Z,50.40
2017-09-03T21:34:00.918Z,56.10
2017-09-03T21:36:29.518Z,54.80
2017-09-03T21:38:58.403Z,55.37
2017-09-03T21:41:27.153Z,54.10
2017-09-03T21:43:55.555Z,58.50
2017-09-03T21:46:25.168Z,53.63
2017-09-03T21:48:53.590Z,56.90
2017-09-03T21:51:22.178Z,55.93
2017-09-03T21:53:51.685Z,55.67
2017-09-03T21:56:20.267Z,55.80
2017-09-03T21:58:48.994Z,55.83
2017-09-03T22:01:17.569Z,57.20
2017-09-03T22:03:46.114Z,55.80
2017-09-03T22:06:14.780Z,54.77
2017-09-03T22:08:42.896Z,56.57
2017-09-03T22:11:11.466Z,55.77
2017-09-03T22:13:40.218Z,56.57
2017-09-03T22:16:08.782Z,53.57
2017-09-03T22:18:37.294Z,56.30
2017-09-03T22:21:05.882Z,56.40
2017-09-03T22:23:34.838Z,56.23
2017-09-03T22:26:03.230Z,57.60
2017-09-03T22:28:31.741Z,56.30
2017-09-03T22:31:00.641Z,55.50
2017-09-03T22:33:29.314Z,54.90
2017-09-03T22:35:57.329Z,57.60
2017-09-03T22:38:26.894Z,56.17
2017-09-03T22:40:54.902Z,56.70
2017-09-03T22:43:23.617Z,57.00
2017-09-03T22:45:52.101Z,56.53
2017-09-03T22:48:20.834Z,58.23
2017-09-03T22:50:49.437Z,58.43
2017-09-03T22:53:18.191Z,58.40
2017-09-03T22:55:46.618Z,56.67
2017-09-03T22:58:14.658Z,59.07
2017-09-03T23:00:43.239Z,56.90
2017-09-03T23:03:11.821Z,56.73
2017-09-03T23:05:40.509Z,55.77
2017-09-03T23:08:09.466Z,56.43
2017-09-03T23:10:37.862Z,58.70
2017-09-03T23:13:06.470Z,57.70
2017-09-03T23:15:35.292Z,55.20
2017-09-03T23:18:04.039Z,55.67
2017-09-03T23:20:32.510Z,55.63
2017-09-03T23:23:01.123Z,56.63
2017-09-03T23:25:29.805Z,56.30
2017-09-03T23:27:58.378Z,56.57
2017-09-03T23:30:27.012Z,56.40
2017-09-03T23:32:55.586Z,54.33
2017-09-03T23:35:24.235Z,54.53
2017-09-03T23:37:52.796Z,51.70
2017-09-03T23:40:21.517Z,57.17
2017-09-03T23:42:50.205Z,54.63
2017-09-03T23:45:19.062Z,54.37
2017-09-03T23:47:47.774Z,56.57
2017-09-03T23:50:17.086Z,59.50
2017-09-03T23:52:45.218Z,62.30
2017-09-03T23:55:13.776Z,62.40
2017-09-03T23:57:42.523Z,57.40
